sensor_id;sensor_type;location;lat;lon;timestamp;pressure;altitude;pressure_sealevel;temperature;humidity
10921;BME280;5513;50.580;8.818;2022-08-19T00:00:03;98652.97;;;21.12;100.00
10921;BME280;5513;50.580;8.818;2022-08-19T00:02:35;98657.28;;;21.30;100.00
10921;BME280;5513;50.580;8.818;2022-08-19T00:05:18;98660.81;;;21.30;100.00
10921;BME280;5513;50.580;8.818;2022-08-19T00:07:48;98658.63;;;21.26;100.00
10921;BME280;5513;50.580;8.818;2022-08-19T00:10:19;98670.94;;;21.20;100.00
10921;BME280;5513;50.580;8.818;2022-08-19T00:12:48;98673.25;;;21.31;100.00
10921;BME280;5513;50.580;8.818;2022-08-19T00:15:20;98671.59;;;21.22;100.00
10921;BME280;5513;50.580;8.818;2022-08-19T00:17:54;98662.91;;;21.12;100.00
10921;BME280;5513;50.580;8.818;2022-08-19T00:20:25;98660.91;;;21.14;100.00
10921;BME280;5513;50.580;8.818;2022-08-19T00:22:54;98658.31;;;21.21;100.00
10921;BME280;5513;50.580;8.818;2022-08-19T00:25:22;98652.88;;;21.06;100.00
10921;BME280;5513;50.580;8.818;2022-08-19T00:27:56;98647.91;;;21.18;100.00
10921;BME280;5513;50.580;8.818;2022-08-19T00:30:25;98647.25;;;21.15;100.00
10921;BME280;5513;50.580;8.818;2022-08-19T00:32:57;98656.00;;;21.18;100.00
10921;BME280;5513;50.580;8.818;2022-08-19T00:35:25;98650.59;;;21.18;100.00
10921;BME280;5513;50.580;8.818;2022-08-19T00:37:55;98651.13;;;21.13;100.00
10921;BME280;5513;50.580;8.818;2022-08-19T00:40:24;98652.13;;;21.12;100.00
10921;BME280;5513;50.580;8.818;2022-08-19T00:42:54;98648.97;;;21.08;100.00
10921;BME280;5513;50.580;8.818;2022-08-19T00:45:27;98643.94;;;21.05;100.00
10921;BME280;5513;50.580;8.818;2022-08-19T00:48:02;98638.28;;;20.92;100.00
10921;BME280;5513;50.580;8.818;2022-08-19T00:50:42;98638.09;;;20.94;100.00
10921;BME280;5513;50.580;8.818;2022-08-19T00:53:20;98636.84;;;20.81;100.00
10921;BME280;5513;50.580;8.818;2022-08-19T00:55:53;98634.13;;;20.81;100.00
10921;BME280;5513;50.580;8.818;2022-08-19T00:58:27;98632.09;;;20.83;100.00
10921;BME280;5513;50.580;8.818;2022-08-19T01:00:57;98631.31;;;20.75;100.00
10921;BME280;5513;50.580;8.818;2022-08-19T01:03:28;98636.50;;;20.84;100.00
10921;BME280;5513;50.580;8.818;2022-08-19T01:06:16;98633.09;;;20.91;100.00
10921;BME280;5513;50.580;8.818;2022-08-19T01:08:46;98629.25;;;20.85;100.00
10921;BME280;5513;50.580;8.818;2022-08-19T01:11:16;98638.47;;;20.91;100.00
10921;BME280;5513;50.580;8.818;2022-08-19T01:13:45;98631.25;;;20.83;100.00
10921;BME280;5513;50.580;8.818;2022-08-19T01:16:16;98625.25;;;20.73;100.00
10921;BME280;5513;50.580;8.818;2022-08-19T01:18:49;98617.72;;;20.68;100.00
10921;BME280;5513;50.580;8.818;2022-08-19T01:21:23;98614.16;;;20.76;100.00
10921;BME280;5513;50.580;8.818;2022-08-19T01:23:57;98596.16;;;20.76;100.00
10921;BME280;5513;50.580;8.818;2022-08-19T01:26:27;98598.72;;;20.70;100.00
10921;BME280;5513;50.580;8.818;2022-08-19T01:28:58;98597.22;;;20.67;100.00
10921;BME280;5513;50.580;8.818;2022-08-19T01:31:31;98598.56;;;20.63;100.00
10921;BME280;5513;50.580;8.818;2022-08-19T01:34:01;98610.31;;;20.70;100.00
10921;BME280;5513;50.580;8.818;2022-08-19T01:36:33;98616.34;;;20.72;100.00
10921;BME280;5513;50.580;8.818;2022-08-19T01:39:07;98608.78;;;20.76;100.00
10921;BME280;5513;50.580;8.818;2022-08-19T01:41:45;98607.94;;;20.75;100.00
10921;BME280;5513;50.580;8.818;2022-08-19T01:44:15;98604.47;;;20.67;100.00
10921;BME280;5513;50.580;8.818;2022-08-19T01:46:46;98606.47;;;20.65;100.00
10921;BME280;5513;50.580;8.818;2022-08-19T01:49:16;98596.50;;;20.73;100.00
10921;BME280;5513;50.580;8.818;2022-08-19T01:51:46;98591.38;;;20.55;100.00
10921;BME280;5513;50.580;8.818;2022-08-19T01:54:18;98599.31;;;20.49;100.00
10921;BME280;5513;50.580;8.818;2022-08-19T01:56:55;98605.00;;;20.54;100.00
10921;BME280;5513;50.580;8.818;2022-08-19T01:59:25;98609.25;;;20.48;100.00
10921;BME280;5513;50.580;8.818;2022-08-19T02:01:55;98611.94;;;20.48;100.00
10921;BME280;5513;50.580;8.818;2022-08-19T02:04:24;98612.97;;;20.47;100.00
10921;BME280;5513;50.580;8.818;2022-08-19T02:06:54;98616.31;;;20.49;100.00
10921;BME280;5513;50.580;8.818;2022-08-19T02:09:24;98627.72;;;20.51;100.00
10921;BME280;5513;50.580;8.818;2022-08-19T02:11:52;98620.84;;;20.49;100.00
10921;BME280;5513;50.580;8.818;2022-08-19T02:14:21;98621.88;;;20.32;100.00
10921;BME280;5513;50.580;8.818;2022-08-19T02:16:50;98619.72;;;20.27;100.00
10921;BME280;5513;50.580;8.818;2022-08-19T02:19:18;98624.38;;;20.41;100.00
10921;BME280;5513;50.580;8.818;2022-08-19T02:21:47;98628.91;;;20.41;100.00
10921;BME280;5513;50.580;8.818;2022-08-19T02:24:15;98620.19;;;20.39;100.00
10921;BME280;5513;50.580;8.818;2022-08-19T02:26:45;98615.13;;;20.36;100.00
10921;BME280;5513;50.580;8.818;2022-08-19T02:29:14;98612.13;;;20.39;100.00
10921;BME280;5513;50.580;8.818;2022-08-19T02:31:42;98609.00;;;20.11;100.00
10921;BME280;5513;50.580;8.818;2022-08-19T02:34:11;98613.22;;;19.97;100.00
10921;BME280;5513;50.580;8.818;2022-08-19T02:36:40;98611.38;;;19.97;100.00
10921;BME280;5513;50.580;8.818;2022-08-19T02:39:08;98616.75;;;20.06;100.00
10921;BME280;5513;50.580;8.818;2022-08-19T02:41:36;98624.97;;;20.04;100.00
10921;BME280;5513;50.580;8.818;2022-08-19T02:44:06;98629.50;;;20.12;100.00
10921;BME280;5513;50.580;8.818;2022-08-19T02:46:55;98644.06;;;20.25;100.00
10921;BME280;5513;50.580;8.818;2022-08-19T02:49:24;98648.13;;;20.21;100.00
10921;BME280;5513;50.580;8.818;2022-08-19T02:51:53;98648.13;;;20.21;100.00
10921;BME280;5513;50.580;8.818;2022-08-19T02:54:21;98649.81;;;20.22;100.00
10921;BME280;5513;50.580;8.818;2022-08-19T02:56:50;98656.84;;;20.32;100.00
10921;BME280;5513;50.580;8.818;2022-08-19T02:59:20;98661.75;;;20.20;100.00
10921;BME280;5513;50.580;8.818;2022-08-19T03:01:49;98659.00;;;20.36;100.00
10921;BME280;5513;50.580;8.818;2022-08-19T03:04:18;98650.16;;;20.19;100.00
10921;BME280;5513;50.580;8.818;2022-08-19T03:06:47;98648.59;;;20.33;100.00
10921;BME280;5513;50.580;8.818;2022-08-19T03:09:16;98650.47;;;20.33;100.00
10921;BME280;5513;50.580;8.818;2022-08-19T03:11:46;98651.94;;;20.35;100.00
10921;BME280;5513;50.580;8.818;2022-08-19T03:14:20;98657.34;;;20.35;100.00
10921;BME280;5513;50.580;8.818;2022-08-19T03:16:51;98654.63;;;20.35;100.00
10921;BME280;5513;50.580;8.818;2022-08-19T03:19:20;98661.94;;;20.18;100.00
10921;BME280;5513;50.580;8.818;2022-08-19T03:21:50;98661.94;;;20.10;100.00
10921;BME280;5513;50.580;8.818;2022-08-19T03:24:20;98667.81;;;20.14;100.00
10921;BME280;5513;50.580;8.818;2022-08-19T03:26:50;98668.34;;;20.09;100.00
10921;BME280;5513;50.580;8.818;2022-08-19T03:29:21;98655.53;;;20.19;100.00
10921;BME280;5513;50.580;8.818;2022-08-19T03:31:56;98662.91;;;20.25;100.00
10921;BME280;5513;50.580;8.818;2022-08-19T03:34:31;98664.28;;;20.21;100.00
10921;BME280;5513;50.580;8.818;2022-08-19T03:37:04;98670.31;;;20.32;100.00
10921;BME280;5513;50.580;8.818;2022-08-19T03:39:35;98667.59;;;20.32;100.00
10921;BME280;5513;50.580;8.818;2022-08-19T03:42:05;98670.31;;;20.32;100.00
10921;BME280;5513;50.580;8.818;2022-08-19T03:44:55;98667.28;;;20.26;100.00
10921;BME280;5513;50.580;8.818;2022-08-19T03:47:24;98672.84;;;20.17;100.00
10921;BME280;5513;50.580;8.818;2022-08-19T03:49:53;98670.19;;;20.09;100.00
10921;BME280;5513;50.580;8.818;2022-08-19T03:52:24;98673.19;;;20.06;100.00
10921;BME280;5513;50.580;8.818;2022-08-19T03:54:53;98678.56;;;20.14;100.00
10921;BME280;5513;50.580;8.818;2022-08-19T03:57:22;98671.72;;;19.95;100.00
10921;BME280;5513;50.580;8.818;2022-08-19T03:59:59;98677.25;;;20.01;100.00
10921;BME280;5513;50.580;8.818;2022-08-19T04:02:39;98673.91;;;20.08;100.00
10921;BME280;5513;50.580;8.818;2022-08-19T04:05:27;98671.88;;;20.01;100.00
10921;BME280;5513;50.580;8.818;2022-08-19T04:07:56;98674.22;;;20.05;100.00
10921;BME280;5513;50.580;8.818;2022-08-19T04:10:26;98672.19;;;20.07;100.00
10921;BME280;5513;50.580;8.818;2022-08-19T04:12:55;98676.41;;;20.09;100.00
10921;BME280;5513;50.580;8.818;2022-08-19T04:15:26;98686.16;;;20.10;100.00
10921;BME280;5513;50.580;8.818;2022-08-19T04:17:55;98682.47;;;19.95;100.00
10921;BME280;5513;50.580;8.818;2022-08-19T04:20:24;98687.34;;;19.99;100.00
10921;BME280;5513;50.580;8.818;2022-08-19T04:22:53;98684.78;;;20.06;100.00
10921;BME280;5513;50.580;8.818;2022-08-19T04:25:21;98688.50;;;20.05;100.00
10921;BME280;5513;50.580;8.818;2022-08-19T04:27:50;98673.38;;;19.96;100.00
10921;BME280;5513;50.580;8.818;2022-08-19T04:30:19;98678.63;;;19.89;100.00
10921;BME280;5513;50.580;8.818;2022-08-19T04:32:50;98684.84;;;19.90;100.00
10921;BME280;5513;50.580;8.818;2022-08-19T04:35:19;98687.16;;;19.77;100.00
10921;BME280;5513;50.580;8.818;2022-08-19T04:37:50;98693.38;;;19.93;100.00
10921;BME280;5513;50.580;8.818;2022-08-19T04:40:18;98684.66;;;19.91;100.00
10921;BME280;5513;50.580;8.818;2022-08-19T04:43:04;98690.34;;;19.96;100.00
10921;BME280;5513;50.580;8.818;2022-08-19T04:45:33;98690.69;;;20.01;100.00
10921;BME280;5513;50.580;8.818;2022-08-19T04:48:11;98682.63;;;19.85;100.00
10921;BME280;5513;50.580;8.818;2022-08-19T04:50:54;98687.34;;;19.83;100.00
10921;BME280;5513;50.580;8.818;2022-08-19T04:53:28;98698.59;;;19.87;100.00
10921;BME280;5513;50.580;8.818;2022-08-19T04:56:05;98700.63;;;19.93;100.00
10921;BME280;5513;50.580;8.818;2022-08-19T04:58:35;98691.00;;;20.07;100.00
10921;BME280;5513;50.580;8.818;2022-08-19T05:01:04;98703.78;;;19.96;100.00
10921;BME280;5513;50.580;8.818;2022-08-19T05:03:38;98702.13;;;20.04;100.00
10921;BME280;5513;50.580;8.818;2022-08-19T05:06:09;98695.06;;;20.02;100.00
10921;BME280;5513;50.580;8.818;2022-08-19T05:08:39;98700.91;;;20.14;100.00
10921;BME280;5513;50.580;8.818;2022-08-19T05:11:13;98695.06;;;20.11;100.00
10921;BME280;5513;50.580;8.818;2022-08-19T05:13:43;98695.38;;;20.16;100.00
10921;BME280;5513;50.580;8.818;2022-08-19T05:16:13;98701.44;;;20.18;100.00
10921;BME280;5513;50.580;8.818;2022-08-19T05:18:43;98688.66;;;20.12;100.00
10921;BME280;5513;50.580;8.818;2022-08-19T05:21:30;98696.06;;;20.10;100.00
10921;BME280;5513;50.580;8.818;2022-08-19T05:24:20;98690.16;;;20.14;100.00
10921;BME280;5513;50.580;8.818;2022-08-19T05:26:51;98694.53;;;20.15;100.00
10921;BME280;5513;50.580;8.818;2022-08-19T05:29:26;98687.16;;;20.17;100.00
10921;BME280;5513;50.580;8.818;2022-08-19T05:32:04;98690.63;;;20.34;100.00
10921;BME280;5513;50.580;8.818;2022-08-19T05:34:39;98687.47;;;20.14;100.00
10921;BME280;5513;50.580;8.818;2022-08-19T05:37:08;98693.03;;;20.13;100.00
10921;BME280;5513;50.580;8.818;2022-08-19T05:39:38;98691.19;;;20.05;100.00
10921;BME280;5513;50.580;8.818;2022-08-19T05:42:09;98700.25;;;20.04;100.00
10921;BME280;5513;50.580;8.818;2022-08-19T05:44:40;98696.25;;;20.00;100.00
10921;BME280;5513;50.580;8.818;2022-08-19T05:47:11;98695.06;;;20.11;100.00
10921;BME280;5513;50.580;8.818;2022-08-19T05:49:43;98697.09;;;20.09;100.00
10921;BME280;5513;50.580;8.818;2022-08-19T05:52:14;98697.75;;;20.19;100.00
10921;BME280;5513;50.580;8.818;2022-08-19T05:54:45;98687.75;;;20.36;100.00
10921;BME280;5513;50.580;8.818;2022-08-19T05:57:19;98694.31;;;20.41;100.00
10921;BME280;5513;50.580;8.818;2022-08-19T05:59:50;98692.00;;;20.46;100.00
10921;BME280;5513;50.580;8.818;2022-08-19T06:02:24;98708.59;;;20.58;100.00
10921;BME280;5513;50.580;8.818;2022-08-19T06:04:58;98697.81;;;20.66;100.00
10921;BME280;5513;50.580;8.818;2022-08-19T06:07:27;98706.56;;;20.68;100.00
10921;BME280;5513;50.580;8.818;2022-08-19T06:09:56;98706.00;;;20.73;100.00
10921;BME280;5513;50.580;8.818;2022-08-19T06:12:27;98709.50;;;20.90;100.00
10921;BME280;5513;50.580;8.818;2022-08-19T06:14:59;98712.72;;;20.85;100.00
10921;BME280;5513;50.580;8.818;2022-08-19T06:17:28;98717.22;;;20.93;100.00
10921;BME280;5513;50.580;8.818;2022-08-19T06:19:59;98715.06;;;20.88;100.00
10921;BME280;5513;50.580;8.818;2022-08-19T06:22:28;98719.38;;;20.97;100.00
10921;BME280;5513;50.580;8.818;2022-08-19T06:24:57;98714.38;;;20.94;100.00
10921;BME280;5513;50.580;8.818;2022-08-19T06:27:25;98715.69;;;20.98;100.00
10921;BME280;5513;50.580;8.818;2022-08-19T06:29:56;98714.69;;;20.91;100.00
10921;BME280;5513;50.580;8.818;2022-08-19T06:32:24;98716.53;;;20.99;100.00
10921;BME280;5513;50.580;8.818;2022-08-19T06:34:53;98731.25;;;21.11;100.00
10921;BME280;5513;50.580;8.818;2022-08-19T06:37:23;98735.63;;;21.12;100.00
10921;BME280;5513;50.580;8.818;2022-08-19T06:39:52;98737.84;;;21.08;100.00
10921;BME280;5513;50.580;8.818;2022-08-19T06:42:21;98746.38;;;21.28;100.00
10921;BME280;5513;50.580;8.818;2022-08-19T06:44:49;98749.53;;;21.32;100.00
10921;BME280;5513;50.580;8.818;2022-08-19T06:47:20;98752.34;;;21.47;100.00
10921;BME280;5513;50.580;8.818;2022-08-19T06:49:54;98752.91;;;21.34;100.00
10921;BME280;5513;50.580;8.818;2022-08-19T06:52:34;98757.66;;;21.24;100.00
10921;BME280;5513;50.580;8.818;2022-08-19T06:55:04;98754.22;;;21.38;100.00
10921;BME280;5513;50.580;8.818;2022-08-19T06:57:34;98751.16;;;21.41;100.00
10921;BME280;5513;50.580;8.818;2022-08-19T07:00:04;98749.19;;;21.66;100.00
10921;BME280;5513;50.580;8.818;2022-08-19T07:02:40;98749.13;;;21.74;100.00
10921;BME280;5513;50.580;8.818;2022-08-19T07:05:21;98751.69;;;21.90;100.00
10921;BME280;5513;50.580;8.818;2022-08-19T07:07:51;98758.09;;;21.89;100.00
10921;BME280;5513;50.580;8.818;2022-08-19T07:10:23;98756.19;;;21.75;100.00
10921;BME280;5513;50.580;8.818;2022-08-19T07:12:52;98759.50;;;21.85;100.00
10921;BME280;5513;50.580;8.818;2022-08-19T07:15:21;98756.47;;;21.80;100.00
10921;BME280;5513;50.580;8.818;2022-08-19T07:17:50;98757.94;;;21.91;100.00
10921;BME280;5513;50.580;8.818;2022-08-19T07:20:18;98763.94;;;22.01;100.00
10921;BME280;5513;50.580;8.818;2022-08-19T07:22:55;98758.78;;;22.14;100.00
10921;BME280;5513;50.580;8.818;2022-08-19T07:25:24;98755.13;;;22.07;100.00
10921;BME280;5513;50.580;8.818;2022-08-19T07:27:57;98756.59;;;22.33;100.00
10921;BME280;5513;50.580;8.818;2022-08-19T07:30:27;98756.53;;;22.55;100.00
10921;BME280;5513;50.580;8.818;2022-08-19T07:32:57;98754.94;;;22.76;100.00
10921;BME280;5513;50.580;8.818;2022-08-19T07:35:29;98752.50;;;22.89;100.00
10921;BME280;5513;50.580;8.818;2022-08-19T07:38:00;98755.94;;;22.98;100.00
10921;BME280;5513;50.580;8.818;2022-08-19T07:40:30;98753.56;;;22.80;100.00
10921;BME280;5513;50.580;8.818;2022-08-19T07:42:59;98748.81;;;22.82;100.00
10921;BME280;5513;50.580;8.818;2022-08-19T07:45:30;98753.59;;;22.95;100.00
10921;BME280;5513;50.580;8.818;2022-08-19T07:47:59;98761.13;;;23.14;100.00
10921;BME280;5513;50.580;8.818;2022-08-19T07:50:28;98748.91;;;23.18;100.00
10921;BME280;5513;50.580;8.818;2022-08-19T07:52:56;98742.00;;;23.30;100.00
10921;BME280;5513;50.580;8.818;2022-08-19T07:55:26;98740.78;;;23.33;100.00
10921;BME280;5513;50.580;8.818;2022-08-19T07:58:10;98741.53;;;23.27;100.00
10921;BME280;5513;50.580;8.818;2022-08-19T08:00:40;98742.22;;;23.50;100.00
10921;BME280;5513;50.580;8.818;2022-08-19T08:03:10;98753.22;;;23.49;100.00
10921;BME280;5513;50.580;8.818;2022-08-19T08:05:40;98747.63;;;23.50;100.00
10921;BME280;5513;50.580;8.818;2022-08-19T08:08:26;98742.41;;;23.49;100.00
10921;BME280;5513;50.580;8.818;2022-08-19T08:11:16;98756.03;;;23.40;100.00
10921;BME280;5513;50.580;8.818;2022-08-19T08:13:47;98749.00;;;23.76;100.00
10921;BME280;5513;50.580;8.818;2022-08-19T08:16:30;98752.22;;;23.86;100.00
10921;BME280;5513;50.580;8.818;2022-08-19T08:19:00;98752.81;;;24.09;100.00
10921;BME280;5513;50.580;8.818;2022-08-19T08:21:33;98758.75;;;24.19;100.00
10921;BME280;5513;50.580;8.818;2022-08-19T08:24:02;98760.22;;;24.22;100.00
10921;BME280;5513;50.580;8.818;2022-08-19T08:26:32;98768.34;;;24.22;100.00
10921;BME280;5513;50.580;8.818;2022-08-19T08:29:02;98760.91;;;24.31;100.00
10921;BME280;5513;50.580;8.818;2022-08-19T08:31:39;98753.09;;;24.36;100.00
10921;BME280;5513;50.580;8.818;2022-08-19T08:34:09;98751.50;;;24.48;100.00
10921;BME280;5513;50.580;8.818;2022-08-19T08:36:42;98766.28;;;24.73;100.00
10921;BME280;5513;50.580;8.818;2022-08-19T08:39:13;98771.13;;;24.84;100.00
10921;BME280;5513;50.580;8.818;2022-08-19T08:41:51;98768.34;;;24.71;100.00
10921;BME280;5513;50.580;8.818;2022-08-19T08:44:23;98768.66;;;24.90;100.00
10921;BME280;5513;50.580;8.818;2022-08-19T08:46:55;98761.06;;;24.72;100.00
10921;BME280;5513;50.580;8.818;2022-08-19T08:49:39;98769.00;;;24.73;100.00
10921;BME280;5513;50.580;8.818;2022-08-19T08:52:11;98774.69;;;24.85;100.00
10921;BME280;5513;50.580;8.818;2022-08-19T08:54:45;98756.78;;;24.56;100.00
10921;BME280;5513;50.580;8.818;2022-08-19T08:57:26;98764.41;;;24.74;100.00
10921;BME280;5513;50.580;8.818;2022-08-19T09:00:10;98767.16;;;25.15;100.00
10921;BME280;5513;50.580;8.818;2022-08-19T09:02:41;98770.16;;;25.33;100.00
10921;BME280;5513;50.580;8.818;2022-08-19T09:05:10;98776.09;;;25.57;100.00
10921;BME280;5513;50.580;8.818;2022-08-19T09:07:48;98775.06;;;25.58;100.00
10921;BME280;5513;50.580;8.818;2022-08-19T09:10:28;98775.84;;;25.38;100.00
10921;BME280;5513;50.580;8.818;2022-08-19T09:13:07;98771.16;;;25.26;100.00
10921;BME280;5513;50.580;8.818;2022-08-19T09:15:45;98772.41;;;25.71;100.00
10921;BME280;5513;50.580;8.818;2022-08-19T09:18:16;98766.47;;;25.54;100.00
10921;BME280;5513;50.580;8.818;2022-08-19T09:20:50;98758.88;;;25.78;100.00
10921;BME280;5513;50.580;8.818;2022-08-19T09:23:22;98757.44;;;25.88;100.00
10921;BME280;5513;50.580;8.818;2022-08-19T09:25:52;98752.66;;;26.30;100.00
10921;BME280;5513;50.580;8.818;2022-08-19T09:28:23;98752.44;;;26.32;100.00
10921;BME280;5513;50.580;8.818;2022-08-19T09:30:52;98745.75;;;26.14;100.00
10921;BME280;5513;50.580;8.818;2022-08-19T09:33:22;98750.53;;;26.78;100.00
10921;BME280;5513;50.580;8.818;2022-08-19T09:36:02;98743.66;;;26.69;100.00
10921;BME280;5513;50.580;8.818;2022-08-19T09:38:35;98733.34;;;26.91;100.00
10921;BME280;5513;50.580;8.818;2022-08-19T09:41:11;98742.38;;;26.78;99.63
10921;BME280;5513;50.580;8.818;2022-08-19T09:43:45;98746.31;;;26.89;96.78
10921;BME280;5513;50.580;8.818;2022-08-19T09:46:14;98738.25;;;27.34;94.64
10921;BME280;5513;50.580;8.818;2022-08-19T09:48:50;98731.06;;;27.46;93.66
10921;BME280;5513;50.580;8.818;2022-08-19T09:51:20;98733.91;;;27.71;93.54
10921;BME280;5513;50.580;8.818;2022-08-19T09:53:51;98729.44;;;27.77;91.20
10921;BME280;5513;50.580;8.818;2022-08-19T09:56:21;98732.03;;;27.20;93.49
10921;BME280;5513;50.580;8.818;2022-08-19T09:58:51;98735.56;;;27.72;92.00
10921;BME280;5513;50.580;8.818;2022-08-19T10:01:22;98736.97;;;27.36;92.25
10921;BME280;5513;50.580;8.818;2022-08-19T10:03:54;98739.16;;;27.01;92.17
10921;BME280;5513;50.580;8.818;2022-08-19T10:06:25;98734.66;;;26.75;95.86
10921;BME280;5513;50.580;8.818;2022-08-19T10:09:13;98742.78;;;26.82;94.74
10921;BME280;5513;50.580;8.818;2022-08-19T10:11:43;98735.06;;;26.72;88.70
10921;BME280;5513;50.580;8.818;2022-08-19T10:14:22;98728.75;;;27.05;87.83
10921;BME280;5513;50.580;8.818;2022-08-19T10:16:50;98721.44;;;27.05;88.80
10921;BME280;5513;50.580;8.818;2022-08-19T10:19:18;98720.28;;;27.26;81.50
10921;BME280;5513;50.580;8.818;2022-08-19T10:21:52;98725.34;;;27.23;77.35
10921;BME280;5513;50.580;8.818;2022-08-19T10:24:26;98718.78;;;27.75;80.61
10921;BME280;5513;50.580;8.818;2022-08-19T10:26:57;98713.78;;;28.04;80.73
10921;BME280;5513;50.580;8.818;2022-08-19T10:29:27;98711.16;;;28.15;81.88
10921;BME280;5513;50.580;8.818;2022-08-19T10:31:59;98712.91;;;28.10;81.18
10921;BME280;5513;50.580;8.818;2022-08-19T10:34:30;98706.88;;;28.51;79.70
10921;BME280;5513;50.580;8.818;2022-08-19T10:36:59;98718.81;;;28.25;77.84
10921;BME280;5513;50.580;8.818;2022-08-19T10:39:29;98712.69;;;27.80;80.65
10921;BME280;5513;50.580;8.818;2022-08-19T10:42:09;98724.00;;;27.38;83.59
10921;BME280;5513;50.580;8.818;2022-08-19T10:44:42;98720.03;;;27.41;84.92
10921;BME280;5513;50.580;8.818;2022-08-19T10:47:13;98715.59;;;27.85;75.12
10921;BME280;5513;50.580;8.818;2022-08-19T10:49:51;98711.16;;;28.15;69.66
10921;BME280;5513;50.580;8.818;2022-08-19T10:52:38;98715.06;;;28.51;73.77
10921;BME280;5513;50.580;8.818;2022-08-19T10:55:17;98711.28;;;28.02;78.35
10921;BME280;5513;50.580;8.818;2022-08-19T10:58:10;98711.56;;;27.87;82.31
10921;BME280;5513;50.580;8.818;2022-08-19T11:00:40;98700.66;;;27.94;81.61
10921;BME280;5513;50.580;8.818;2022-08-19T11:03:10;98703.31;;;28.26;79.84
10921;BME280;5513;50.580;8.818;2022-08-19T11:05:38;98695.63;;;28.16;80.47
10921;BME280;5513;50.580;8.818;2022-08-19T11:08:08;98697.34;;;27.85;81.93
10921;BME280;5513;50.580;8.818;2022-08-19T11:10:49;98694.28;;;27.75;82.29
10921;BME280;5513;50.580;8.818;2022-08-19T11:13:17;98695.44;;;27.23;85.79
10921;BME280;5513;50.580;8.818;2022-08-19T11:15:47;98697.25;;;27.99;80.35
10921;BME280;5513;50.580;8.818;2022-08-19T11:18:24;98690.56;;;28.88;74.75
10921;BME280;5513;50.580;8.818;2022-08-19T11:21:05;98689.78;;;29.35;62.40
10921;BME280;5513;50.580;8.818;2022-08-19T11:23:33;98691.94;;;29.63;61.11
10921;BME280;5513;50.580;8.818;2022-08-19T11:26:01;98681.41;;;29.90;62.63
10921;BME280;5513;50.580;8.818;2022-08-19T11:28:31;98667.59;;;30.15;63.37
10921;BME280;5513;50.580;8.818;2022-08-19T11:31:03;98664.22;;;29.48;66.85
10921;BME280;5513;50.580;8.818;2022-08-19T11:33:31;98667.22;;;29.58;65.45
10921;BME280;5513;50.580;8.818;2022-08-19T11:36:00;98663.28;;;28.88;69.26
10921;BME280;5513;50.580;8.818;2022-08-19T11:38:30;98659.75;;;28.69;71.05
10921;BME280;5513;50.580;8.818;2022-08-19T11:40:59;98656.47;;;29.15;67.32
10921;BME280;5513;50.580;8.818;2022-08-19T11:43:30;98653.09;;;29.31;66.52
10921;BME280;5513;50.580;8.818;2022-08-19T11:46:06;98642.00;;;29.98;62.78
10921;BME280;5513;50.580;8.818;2022-08-19T11:48:37;98653.91;;;30.27;55.69
10921;BME280;5513;50.580;8.818;2022-08-19T11:51:07;98641.78;;;30.58;52.84
10921;BME280;5513;50.580;8.818;2022-08-19T11:53:38;98634.41;;;30.59;54.40
10921;BME280;5513;50.580;8.818;2022-08-19T11:56:08;98638.56;;;30.61;53.22
10921;BME280;5513;50.580;8.818;2022-08-19T11:58:38;98627.91;;;31.00;52.40
10921;BME280;5513;50.580;8.818;2022-08-19T12:01:13;98642.59;;;30.59;52.23
10921;BME280;5513;50.580;8.818;2022-08-19T12:03:43;98643.09;;;30.67;51.78
10921;BME280;5513;50.580;8.818;2022-08-19T12:06:14;98649.16;;;30.81;50.68
10921;BME280;5513;50.580;8.818;2022-08-19T12:08:43;98647.38;;;30.75;49.46
10921;BME280;5513;50.580;8.818;2022-08-19T12:11:14;98641.63;;;31.57;47.57
10921;BME280;5513;50.580;8.818;2022-08-19T12:13:44;98636.97;;;31.00;48.26
10921;BME280;5513;50.580;8.818;2022-08-19T12:16:16;98637.03;;;30.65;48.30
10921;BME280;5513;50.580;8.818;2022-08-19T12:18:46;98640.09;;;29.87;51.26
10921;BME280;5513;50.580;8.818;2022-08-19T12:21:16;98632.88;;;30.51;50.23
10921;BME280;5513;50.580;8.818;2022-08-19T12:23:47;98617.06;;;30.53;51.06
10921;BME280;5513;50.580;8.818;2022-08-19T12:26:22;98631.19;;;30.73;51.10
10921;BME280;5513;50.580;8.818;2022-08-19T12:28:52;98634.63;;;30.81;51.01
10921;BME280;5513;50.580;8.818;2022-08-19T12:31:22;98628.56;;;29.85;52.37
10921;BME280;5513;50.580;8.818;2022-08-19T12:33:51;98637.69;;;29.07;56.67
10921;BME280;5513;50.580;8.818;2022-08-19T12:36:20;98621.63;;;29.59;56.30
10921;BME280;5513;50.580;8.818;2022-08-19T12:38:50;98622.47;;;29.71;56.02
10921;BME280;5513;50.580;8.818;2022-08-19T12:41:25;98617.03;;;29.71;59.09
10921;BME280;5513;50.580;8.818;2022-08-19T12:43:53;98633.53;;;29.64;58.97
10921;BME280;5513;50.580;8.818;2022-08-19T12:46:24;98622.47;;;29.71;57.30
10921;BME280;5513;50.580;8.818;2022-08-19T12:48:54;98616.91;;;29.78;56.14
10921;BME280;5513;50.580;8.818;2022-08-19T12:51:23;98620.78;;;30.12;53.03
10921;BME280;5513;50.580;8.818;2022-08-19T12:53:52;98619.50;;;29.61;53.00
10921;BME280;5513;50.580;8.818;2022-08-19T12:56:20;98611.94;;;29.75;53.50
10921;BME280;5513;50.580;8.818;2022-08-19T12:58:49;98618.81;;;29.35;53.79
10921;BME280;5513;50.580;8.818;2022-08-19T13:01:18;98616.66;;;29.26;53.40
10921;BME280;5513;50.580;8.818;2022-08-19T13:03:50;98614.88;;;29.31;52.29
10921;BME280;5513;50.580;8.818;2022-08-19T13:06:20;98622.94;;;29.56;53.52
10921;BME280;5513;50.580;8.818;2022-08-19T13:08:49;98626.44;;;29.45;53.01
10921;BME280;5513;50.580;8.818;2022-08-19T13:11:25;98615.88;;;29.37;53.77
10921;BME280;5513;50.580;8.818;2022-08-19T13:13:54;98618.09;;;29.28;56.33
10921;BME280;5513;50.580;8.818;2022-08-19T13:16:23;98617.59;;;29.31;58.81
10921;BME280;5513;50.580;8.818;2022-08-19T13:18:56;98617.94;;;29.23;59.91
10921;BME280;5513;50.580;8.818;2022-08-19T13:21:26;98627.63;;;28.89;58.72
10921;BME280;5513;50.580;8.818;2022-08-19T13:23:57;98616.81;;;29.13;57.93
10921;BME280;5513;50.580;8.818;2022-08-19T13:26:27;98627.78;;;28.94;59.90